Time;durP1;ratioP1;P1;durP2;ratioP2;P2;SDS_P1;SDS_P2;PMS_P1;PMS_P2;Temp;Humidity;BMP_temperature;BMP_pressure;BME280_temperature;BME280_humidity;BME280_pressure;Samples;Min_cycle;Max_cycle;Signal;HPM_P1;HPM_P2
2022/12/25 04:36:08;;;;;;;28.27;21.07;;;12.70;99.90;;;;;;4589874;19;20022;-33
2022/12/25 04:37:39;;;;;;;31.93;21.63;;;12.70;99.90;;;;;;4588047;19;20018;-33
2022/12/25 04:39:10;;;;;;;33.95;23.40;;;12.70;99.90;;;;;;4587767;19;20025;-30
2022/12/25 04:40:43;;;;;;;29.17;21.13;;;12.80;99.90;;;;;;4585890;19;20018;-29
2022/12/25 04:42:15;;;;;;;28.52;20.63;;;12.80;99.90;;;;;;4586847;19;20014;-30
2022/12/25 06:56:14;;;;;;;42.40;24.50;;;12.80;99.90;;;;;;4590401;19;20019;-30
2022/12/25 06:57:49;;;;;;;40.25;24.00;;;12.80;99.90;;;;;;4591892;19;20412;-29
2022/12/25 06:59:21;;;;;;;41.35;23.27;;;12.80;99.90;;;;;;4592834;19;20010;-30
2022/12/25 07:00:52;;;;;;;37.28;23.17;;;12.80;99.90;;;;;;4591733;19;20015;-30
2022/12/25 07:02:23;;;;;;;40.80;24.20;;;12.80;99.90;;;;;;4591754;19;20556;-31
2022/12/25 07:04:10;;;;;;;37.35;23.25;;;12.80;99.90;;;;;;4590803;19;20042;-29
2022/12/25 07:05:43;;;;;;;43.47;23.30;;;12.80;99.90;;;;;;4589533;19;20015;-30
2022/12/25 07:07:26;;;;;;;40.90;23.57;;;12.80;99.90;;;;;;4591478;19;20031;-28
2022/12/25 07:08:58;;;;;;;37.97;23.23;;;12.80;99.90;;;;;;4592282;19;20014;-32
2022/12/25 07:10:29;;;;;;;38.05;23.02;;;12.80;99.90;;;;;;4590309;19;20078;-29
2022/12/25 07:12:05;;;;;;;43.83;23.27;;;12.80;99.90;;;;;;4590817;19;20015;-29
2022/12/25 07:13:40;;;;;;;41.77;22.83;;;12.80;99.90;;;;;;4591336;19;20276;-31
2022/12/25 07:15:11;;;;;;;41.63;22.17;;;12.80;99.90;;;;;;4588966;19;20022;-32
2022/12/25 07:16:43;;;;;;;42.55;23.98;;;12.80;99.90;;;;;;4592150;19;20010;-34
2022/12/25 07:18:14;;;;;;;44.63;24.73;;;12.80;99.90;;;;;;4591432;19;20022;-31
2022/12/25 07:19:45;;;;;;;41.88;22.25;;;12.80;99.90;;;;;;4592143;19;20018;-28
2022/12/25 07:21:18;;;;;;;42.13;24.17;;;12.80;99.90;;;;;;4591284;19;20010;-34
2022/12/25 07:22:49;;;;;;;39.93;24.03;;;12.80;99.90;;;;;;4590144;19;20344;-32
2022/12/25 07:24:21;;;;;;;39.55;20.88;;;12.80;99.90;;;;;;4591369;19;20019;-31
2022/12/25 07:25:54;;;;;;;44.63;26.23;;;12.80;99.90;;;;;;4590588;19;20029;-29
2022/12/25 07:27:25;;;;;;;39.47;24.17;;;12.80;99.90;;;;;;4588258;19;20023;-29
2022/12/25 07:28:55;;;;;;;41.58;23.35;;;12.70;99.90;;;;;;4590804;19;20014;-32
2022/12/25 07:30:27;;;;;;;44.00;25.20;;;12.80;99.90;;;;;;4589529;19;20031;-30
2022/12/25 07:31:58;;;;;;;43.00;23.33;;;12.80;99.90;;;;;;4590023;19;20010;-28
2022/12/25 07:33:30;;;;;;;37.53;22.65;;;12.70;99.90;;;;;;4592202;19;20502;-32
2022/12/25 07:35:02;;;;;;;40.43;24.63;;;12.70;99.90;;;;;;4593569;19;20496;-29
2022/12/25 07:36:33;;;;;;;43.20;24.02;;;12.70;99.90;;;;;;4593690;19;20066;-31
2022/12/25 07:38:04;;;;;;;39.55;23.13;;;12.70;99.90;;;;;;4592452;19;20361;-30
2022/12/25 07:39:36;;;;;;;39.20;23.47;;;12.70;99.90;;;;;;4590888;19;20418;-31
2022/12/25 07:41:09;;;;;;;36.17;22.42;;;12.70;99.90;;;;;;4590641;19;20015;-30
2022/12/25 07:42:40;;;;;;;39.63;23.57;;;12.70;99.90;;;;;;4588909;19;20018;-31
2022/12/25 07:44:11;;;;;;;36.38;22.95;;;12.70;99.90;;;;;;4590725;19;20466;-34
2022/12/25 07:45:43;;;;;;;41.28;23.52;;;12.70;99.90;;;;;;4589735;19;20542;-30
2022/12/25 07:47:15;;;;;;;40.77;23.07;;;12.60;99.90;;;;;;4591112;19;20467;-31
2022/12/25 07:48:48;;;;;;;41.47;24.38;;;12.60;99.90;;;;;;4592590;19;20107;-30
2022/12/25 07:50:20;;;;;;;40.70;24.63;;;12.70;99.90;;;;;;4589501;19;20022;-31
2022/12/25 07:51:51;;;;;;;39.67;24.10;;;12.70;99.90;;;;;;4589276;19;20047;-28
2022/12/25 07:53:22;;;;;;;39.30;24.58;;;12.80;99.90;;;;;;4590452;19;20033;-29
2022/12/25 07:54:54;;;;;;;40.85;25.98;;;12.80;99.90;;;;;;4590935;19;20010;-29
2022/12/25 07:58:12;;;;;;;45.10;26.40;;;12.90;99.90;;;;;;4590317;19;20066;-31
2022/12/25 07:59:43;;;;;;;41.80;26.13;;;12.90;99.90;;;;;;4591268;19;20036;-29
2022/12/25 08:01:24;;;;;;;42.72;27.48;;;12.90;99.90;;;;;;4590823;19;20365;-31
2022/12/25 08:02:55;;;;;;;41.20;27.07;;;13.00;99.90;;;;;;4588883;19;20050;-31
2022/12/25 08:04:27;;;;;;;39.87;26.70;;;13.00;99.90;;;;;;4590436;19;20014;-31
2022/12/25 08:06:00;;;;;;;41.85;26.63;;;13.00;99.90;;;;;;4589685;19;20476;-30
2022/12/25 08:07:31;;;;;;;45.53;29.07;;;13.00;99.90;;;;;;4588326;19;20015;-29
2022/12/25 08:09:08;;;;;;;42.22;26.20;;;12.90;99.90;;;;;;4589127;19;20023;-30
2022/12/25 08:10:44;;;;;;;43.53;29.07;;;13.00;99.90;;;;;;4591264;19;20021;-28
2022/12/25 08:12:17;;;;;;;48.43;29.50;;;13.00;99.90;;;;;;4588145;19;20078;-30
2022/12/25 08:13:48;;;;;;;44.90;29.67;;;12.90;99.90;;;;;;4589857;19;20022;-33
2022/12/25 08:15:22;;;;;;;44.77;31.17;;;12.90;99.90;;;;;;4588573;19;20020;-29
2022/12/25 08:16:53;;;;;;;36.80;30.35;;;12.90;99.90;;;;;;4590248;19;20013;-30
2022/12/25 08:18:25;;;;;;;36.60;30.33;;;11.20;99.90;;;;;;4589529;19;20627;-28
2022/12/25 08:19:57;;;;;;;39.20;29.45;;;10.00;99.90;;;;;;4589992;19;20007;-27
2022/12/25 08:21:30;;;;;;;42.40;32.22;;;9.40;99.90;;;;;;4587517;19;20377;-29
2022/12/25 08:23:02;;;;;;;39.23;29.37;;;9.20;99.90;;;;;;4587282;19;20014;-29
2022/12/25 08:24:34;;;;;;;41.00;28.05;;;9.00;99.90;;;;;;4588911;19;21040;-30
2022/12/25 08:26:07;;;;;;;40.40;28.60;;;9.00;99.90;;;;;;4589148;19;20471;-27
2022/12/25 08:27:39;;;;;;;42.93;30.03;;;8.90;99.90;;;;;;4585901;19;20501;-28
2022/12/25 08:29:10;;;;;;;37.42;26.83;;;8.90;99.90;;;;;;4586882;19;20489;-27
2022/12/25 08:30:42;;;;;;;;;;;8.90;99.90;;;;;;4591622;19;20010;-31
2022/12/25 08:32:14;;;;;;;;;;;8.90;99.90;;;;;;4589326;19;20007;-30
2022/12/25 08:33:46;;;;;;;42.17;29.03;;;8.90;99.90;;;;;;4588750;19;19926;-31
2022/12/25 08:35:18;;;;;;;41.73;29.10;;;8.80;99.90;;;;;;4588796;19;21284;-30
2022/12/25 08:36:49;;;;;;;40.60;29.30;;;8.80;99.90;;;;;;4589803;19;20469;-27
2022/12/25 08:38:21;;;;;;;40.13;28.23;;;8.80;99.90;;;;;;4585535;19;20090;-35
2022/12/25 08:39:52;;;;;;;44.25;29.05;;;8.80;99.90;;;;;;4589043;19;20011;-29
2022/12/25 08:41:24;;;;;;;45.30;31.00;;;8.80;99.90;;;;;;4588772;19;20807;-28
2022/12/25 08:42:56;;;;;;;43.25;29.70;;;8.80;99.90;;;;;;4588901;19;20492;-30
2022/12/25 08:44:27;;;;;;;44.30;31.38;;;8.80;99.90;;;;;;4594229;19;20483;-29
2022/12/25 08:45:58;;;;;;;50.53;35.58;;;8.80;99.90;;;;;;4593832;19;20014;-32
2022/12/25 08:47:30;;;;;;;43.28;30.65;;;8.80;99.90;;;;;;4592538;19;20014;-31
2022/12/25 08:49:01;;;;;;;50.45;33.60;;;8.80;99.90;;;;;;4594807;19;20460;-31
2022/12/25 08:50:33;;;;;;;53.17;35.53;;;8.80;99.90;;;;;;4593927;19;20010;-32
2022/12/25 08:52:24;;;;;;;47.60;34.27;;;8.80;99.90;;;;;;4591576;19;20022;-33
2022/12/25 08:53:59;;;;;;;55.33;35.53;;;8.80;99.90;;;;;;4593071;19;20453;-31
2022/12/25 08:55:31;;;;;;;46.63;31.97;;;8.80;99.90;;;;;;4592767;19;20027;-30
2022/12/25 09:05:54;;;;;;;37.30;25.40;;;8.70;99.90;;;;;;4594853;19;20479;-30
2022/12/25 09:07:25;;;;;;;37.30;25.23;;;8.70;99.90;;;;;;4591221;19;20481;-32
2022/12/25 09:08:56;;;;;;;41.30;28.38;;;8.70;99.90;;;;;;4592847;19;20014;-28
2022/12/25 09:10:27;;;;;;;40.13;27.50;;;8.60;99.90;;;;;;4593211;19;20595;-30
2022/12/25 09:11:59;;;;;;;40.13;28.60;;;8.60;99.90;;;;;;4592726;19;20043;-30
2022/12/25 09:13:30;;;;;;;41.90;28.67;;;8.60;99.90;;;;;;4592505;19;20006;-32
2022/12/25 09:15:01;;;;;;;45.13;28.63;;;8.60;99.90;;;;;;4592861;19;20021;-30
2022/12/25 09:16:33;;;;;;;;;;;8.60;99.90;;;;;;4594661;19;20010;-31
2022/12/25 09:18:05;;;;;;;41.87;27.43;;;8.60;99.90;;;;;;4592879;19;19915;-29
2022/12/25 09:19:36;;;;;;;46.03;29.03;;;8.70;99.90;;;;;;4593070;19;20346;-29
2022/12/25 09:21:09;;;;;;;44.35;29.55;;;8.60;99.90;;;;;;4594087;19;20465;-33
2022/12/25 09:22:40;;;;;;;44.33;30.00;;;8.70;99.90;;;;;;4590635;19;20494;-32
2022/12/25 09:24:11;;;;;;;47.65;32.88;;;8.60;99.90;;;;;;4592989;19;20473;-31
2022/12/25 09:25:43;;;;;;;46.28;30.95;;;8.70;99.90;;;;;;4592034;19;20026;-31
2022/12/25 09:27:14;;;;;;;47.10;31.15;;;8.60;99.90;;;;;;4593575;19;20021;-34
2022/12/25 09:28:45;;;;;;;44.30;29.75;;;8.70;99.90;;;;;;4593606;19;20027;-28
2022/12/25 09:30:17;;;;;;;46.75;31.38;;;8.60;99.90;;;;;;4592429;19;20019;-35
2022/12/25 09:31:49;;;;;;;47.00;31.50;;;8.60;99.90;;;;;;4593340;19;20052;-31
2022/12/25 09:33:20;;;;;;;47.45;32.90;;;8.60;99.90;;;;;;4592594;19;20464;-29
2022/12/25 09:34:51;;;;;;;50.40;36.28;;;8.60;99.90;;;;;;4592633;19;20355;-34
2022/12/25 09:36:23;;;;;;;51.20;34.50;;;8.60;99.90;;;;;;4591771;19;20066;-30
2022/12/25 09:37:54;;;;;;;49.85;34.72;;;8.60;99.90;;;;;;4591760;19;20095;-30
2022/12/25 09:39:26;;;;;;;52.13;35.83;;;8.60;99.90;;;;;;4591125;19;20026;-28
2022/12/25 09:40:58;;;;;;;117.88;72.05;;;8.70;99.90;;;;;;4593853;19;20477;-31
2022/12/25 09:42:30;;;;;;;149.23;88.43;;;8.60;99.90;;;;;;4590439;19;20054;-31
2022/12/25 09:44:10;;;;;;;200.73;114.30;;;8.70;99.90;;;;;;4592305;19;20520;-31
2022/12/25 09:45:42;;;;;;;126.23;75.13;;;8.70;99.90;;;;;;4592132;19;20556;-29
2022/12/25 09:47:15;;;;;;;239.00;133.55;;;8.70;99.90;;;;;;4590780;19;20497;-30
2022/12/25 09:49:20;;;;;;;117.07;74.17;;;8.70;99.90;;;;;;4591637;19;20516;-31
2022/12/25 09:51:05;;;;;;;151.90;91.93;;;8.70;99.90;;;;;;4591049;19;20460;-30
2022/12/25 09:52:38;;;;;;;127.53;81.70;;;8.70;99.90;;;;;;4587975;19;20484;-31
2022/12/25 09:54:26;;;;;;;103.63;68.30;;;8.70;99.90;;;;;;4589344;19;20475;-31
2022/12/25 09:56:05;;;;;;;185.97;108.70;;;8.70;99.90;;;;;;4591647;19;21438;-29
2022/12/25 09:57:36;;;;;;;321.07;171.03;;;8.70;99.90;;;;;;4591291;19;20889;-33
2022/12/25 09:59:16;;;;;;;379.38;198.35;;;8.70;99.90;;;;;;4590753;19;20507;-29
2022/12/25 10:00:51;;;;;;;463.60;241.30;;;8.70;99.90;;;;;;4590338;19;20025;-31
2022/12/25 10:02:34;;;;;;;326.57;165.27;;;8.70;99.90;;;;;;4588854;19;20483;-33
2022/12/25 10:04:19;;;;;;;487.30;251.87;;;8.80;99.90;;;;;;4590809;19;20472;-30
2022/12/25 10:08:59;;;;;;;281.50;145.03;;;8.70;99.90;;;;;;4587844;19;20448;-28
2022/12/25 10:10:56;;;;;;;319.70;154.77;;;8.80;99.90;;;;;;4591072;19;20453;-29
2022/12/25 10:12:51;;;;;;;354.90;172.97;;;9.40;99.90;;;;;;4589655;19;20484;-29
2022/12/25 10:17:04;;;;;;;157.17;87.77;;;10.40;99.90;;;;;;4590800;19;20835;-33
2022/12/25 10:18:44;;;;;;;162.90;99.07;;;10.70;99.90;;;;;;4592122;19;20564;-30
2022/12/25 10:20:44;;;;;;;127.10;76.60;;;11.00;99.90;;;;;;4589948;19;20493;-31
2022/12/25 10:22:35;;;;;;;136.37;82.40;;;11.10;99.90;;;;;;4590144;19;20449;-30
2022/12/25 10:24:13;;;;;;;286.47;153.23;;;11.20;99.90;;;;;;4590954;19;20548;-31
2022/12/25 10:25:45;;;;;;;257.07;140.70;;;11.30;99.90;;;;;;4592736;19;20433;-30
2022/12/25 10:27:28;;;;;;;239.45;134.43;;;11.40;99.90;;;;;;4590461;19;20575;-31
2022/12/25 10:29:15;;;;;;;367.30;190.53;;;11.40;99.90;;;;;;4591956;19;20116;-31
2022/12/25 10:30:59;;;;;;;191.63;102.30;;;11.50;99.90;;;;;;4589846;19;20449;-33
2022/12/25 10:32:42;;;;;;;220.83;114.57;;;11.50;99.90;;;;;;4587600;19;20449;-33
2022/12/25 10:34:15;;;;;;;252.90;128.03;;;11.60;99.90;;;;;;4591374;19;20493;-30
2022/12/25 10:35:46;;;;;;;256.75;123.18;;;11.60;99.90;;;;;;4590262;19;20464;-31
2022/12/25 10:37:18;;;;;;;475.25;244.68;;;11.70;99.90;;;;;;4590010;19;20039;-30
2022/12/25 10:38:49;;;;;;;441.70;220.32;;;11.70;99.90;;;;;;4589946;19;20022;-31
2022/12/25 10:40:36;;;;;;;347.88;173.77;;;11.80;99.90;;;;;;4590462;19;20558;-31
2022/12/25 10:42:27;;;;;;;314.60;163.43;;;11.80;99.90;;;;;;4588354;19;20014;-32
2022/12/25 10:44:02;;;;;;;384.30;197.17;;;11.90;99.90;;;;;;4590411;19;20567;-34
2022/12/25 10:45:47;;;;;;;328.17;172.80;;;11.90;99.90;;;;;;4589557;19;20607;-31
2022/12/25 10:47:23;;;;;;;285.17;147.03;;;11.90;99.90;;;;;;4588234;19;20487;-30
2022/12/25 10:48:56;;;;;;;354.40;183.07;;;11.90;99.90;;;;;;4589004;19;20524;-27
2022/12/25 10:50:27;;;;;;;306.83;157.17;;;12.00;99.90;;;;;;4589367;19;20549;-28
2022/12/25 10:51:59;;;;;;;296.55;146.88;;;12.00;99.90;;;;;;4587672;19;20500;-27
2022/12/25 10:53:39;;;;;;;272.15;140.98;;;12.00;99.90;;;;;;4589240;19;20022;-27
2022/12/25 10:55:11;;;;;;;235.13;119.53;;;12.10;99.90;;;;;;4588326;19;20081;-28
2022/12/25 10:56:55;;;;;;;216.63;111.93;;;12.10;99.90;;;;;;4591969;19;20512;-28
2022/12/25 10:58:26;;;;;;;217.77;115.50;;;12.10;99.90;;;;;;4592153;19;20487;-27
2022/12/25 10:59:58;;;;;;;240.98;128.50;;;12.10;99.90;;;;;;4591405;19;20472;-31
2022/12/25 11:01:29;;;;;;;194.30;108.57;;;12.10;99.90;;;;;;4590991;19;20015;-29
2022/12/25 11:03:37;;;;;;;144.15;80.93;;;12.10;99.90;;;;;;4589641;19;20046;-27
2022/12/25 11:05:12;;;;;;;266.90;135.67;;;12.20;99.90;;;;;;4591066;19;20019;-28
2022/12/25 11:06:43;;;;;;;255.97;126.57;;;12.20;99.90;;;;;;4587637;19;20018;-31
2022/12/25 11:10:20;;;;;;;321.73;160.57;;;12.20;99.90;;;;;;4589843;19;20014;-28
2022/12/25 11:11:52;;;;;;;300.50;156.60;;;12.20;99.90;;;;;;4589823;19;20499;-28
2022/12/25 11:13:27;;;;;;;288.38;154.27;;;12.20;99.90;;;;;;4590498;19;20441;-27
2022/12/25 11:15:01;;;;;;;181.03;99.97;;;12.30;99.90;;;;;;4588906;19;20014;-29
2022/12/25 11:16:36;;;;;;;101.63;61.07;;;12.30;99.90;;;;;;4590619;19;20457;-28
2022/12/25 11:18:42;;;;;;;91.17;56.27;;;12.30;99.90;;;;;;4589403;19;20494;-30
2022/12/25 11:20:15;;;;;;;137.60;77.77;;;12.30;99.90;;;;;;4590271;19;20333;-29
2022/12/25 11:21:51;;;;;;;123.40;70.37;;;12.30;99.90;;;;;;4589278;19;20475;-29
2022/12/25 11:23:26;;;;;;;141.10;84.20;;;12.30;99.90;;;;;;4590523;19;20018;-28
2022/12/25 11:25:09;;;;;;;136.50;80.00;;;12.30;99.90;;;;;;4589393;19;20475;-26
2022/12/25 11:26:49;;;;;;;152.67;87.63;;;12.30;99.90;;;;;;4588555;19;20022;-27
2022/12/25 11:28:20;;;;;;;144.50;82.83;;;12.40;99.90;;;;;;4589139;19;20586;-27
2022/12/25 11:30:02;;;;;;;200.85;107.78;;;12.30;99.90;;;;;;4591074;19;20449;-28
2022/12/25 11:31:38;;;;;;;;;;;12.40;99.90;;;;;;4589839;19;20015;-29
2022/12/25 11:33:10;;;;;;;316.03;157.63;;;12.40;99.90;;;;;;4589582;19;19922;-29
2022/12/25 11:34:43;;;;;;;396.60;197.60;;;12.40;99.90;;;;;;4590327;19;20461;-27
2022/12/25 11:36:39;;;;;;;280.57;149.70;;;12.40;99.90;;;;;;4589869;19;20493;-30
2022/12/25 11:38:10;;;;;;;229.93;122.63;;;12.40;99.90;;;;;;4592219;19;20338;-28
2022/12/25 11:39:41;;;;;;;198.20;108.28;;;12.40;99.90;;;;;;4589977;19;20048;-31
2022/12/25 11:41:12;;;;;;;179.02;96.05;;;12.40;99.90;;;;;;4590483;19;20011;-29
2022/12/25 11:42:47;;;;;;;122.10;74.28;;;12.40;99.90;;;;;;4588979;19;20015;-31
2022/12/25 11:44:46;;;;;;;175.80;97.37;;;12.40;99.90;;;;;;4590569;19;20061;-29
2022/12/25 11:46:39;;;;;;;342.13;173.87;;;12.40;99.90;;;;;;4591062;19;20011;-28
2022/12/25 11:48:18;;;;;;;257.88;131.10;;;12.40;99.90;;;;;;4588776;19;20409;-31
2022/12/25 11:50:00;;;;;;;196.70;107.87;;;12.40;99.90;;;;;;4589479;19;20018;-29
2022/12/25 11:51:34;;;;;;;307.17;156.73;;;12.40;99.90;;;;;;4588336;19;20017;-30
2022/12/25 11:53:21;;;;;;;270.83;139.43;;;12.40;99.90;;;;;;4586575;19;20033;-29
2022/12/25 11:55:21;;;;;;;190.37;104.37;;;12.40;99.90;;;;;;4588312;19;20453;-29
2022/12/25 11:56:52;;;;;;;198.57;112.23;;;12.40;99.90;;;;;;4591055;19;20018;-29
2022/12/25 11:58:40;;;;;;;214.73;128.03;;;12.40;99.90;;;;;;4589218;19;20468;-31
2022/12/25 12:00:13;;;;;;;165.73;100.47;;;12.40;99.90;;;;;;4589205;19;20373;-29
2022/12/25 12:01:52;;;;;;;145.90;86.73;;;12.40;99.90;;;;;;4589244;19;20492;-27
2022/12/25 12:03:39;;;;;;;174.23;96.70;;;12.50;99.90;;;;;;4588366;19;20010;-29
2022/12/25 12:05:36;;;;;;;168.47;93.60;;;12.50;99.90;;;;;;4589911;19;20066;-28
2022/12/25 12:07:36;;;;;;;199.97;107.17;;;12.50;99.90;;;;;;4589642;19;20006;-26
2022/12/25 12:09:25;;;;;;;141.20;80.27;;;12.50;99.90;;;;;;4588498;19;20396;-29
2022/12/25 12:12:56;;;;;;;132.07;72.03;;;12.50;99.90;;;;;;4586527;19;20457;-29
2022/12/25 12:14:36;;;;;;;180.27;91.63;;;12.50;99.90;;;;;;4588874;19;20007;-28
2022/12/25 12:16:07;;;;;;;353.47;164.63;;;12.50;99.90;;;;;;4586905;19;20465;-29
2022/12/25 12:17:39;;;;;;;292.37;139.13;;;12.50;99.90;;;;;;4585772;19;20027;-28
2022/12/25 12:19:24;;;;;;;313.92;148.80;;;12.50;99.90;;;;;;4585800;19;20027;-28
2022/12/25 12:26:28;;;;;;;192.93;96.93;;;12.50;99.90;;;;;;4586595;19;19999;-28
2022/12/25 12:28:02;;;;;;;192.27;98.23;;;12.50;99.90;;;;;;4586755;19;20086;-28
2022/12/25 12:29:40;;;;;;;215.30;107.35;;;12.50;99.90;;;;;;4587112;19;20020;-27
2022/12/25 12:31:11;;;;;;;301.90;149.50;;;12.50;99.90;;;;;;4586410;19;20070;-31
2022/12/25 12:32:43;;;;;;;;;;;12.50;99.90;;;;;;4586079;19;20039;-30
2022/12/25 12:34:20;;;;;;;215.30;112.05;;;12.50;99.90;;;;;;4588501;19;19944;-29
2022/12/25 12:35:53;;;;;;;150.90;81.93;;;12.50;99.90;;;;;;4587642;19;20014;-27
2022/12/25 12:39:37;;;;;;;156.23;85.47;;;12.50;99.90;;;;;;4588269;19;21643;-28
2022/12/25 12:41:08;;;;;;;116.53;68.33;;;12.50;99.90;;;;;;4588443;19;20022;-28
2022/12/25 12:42:43;;;;;;;;;;;12.50;99.90;;;;;;4587306;19;20018;-28
2022/12/25 12:44:15;;;;;;;149.33;84.23;;;12.60;99.90;;;;;;4586972;19;20003;-28
2022/12/25 12:45:56;;;;;;;169.53;94.57;;;12.50;99.90;;;;;;4587143;19;20021;-27
2022/12/25 12:47:28;;;;;;;215.60;117.57;;;12.50;99.90;;;;;;4586140;19;20036;-30
2022/12/25 12:49:30;;;;;;;113.10;72.60;;;12.50;99.90;;;;;;4588336;19;20007;-30
2022/12/25 12:51:05;;;;;;;92.57;61.07;;;12.50;99.90;;;;;;4586084;19;20097;-30
2022/12/25 12:52:37;;;;;;;73.43;53.07;;;12.50;99.90;;;;;;4585356;19;20031;-29
2022/12/25 12:54:16;;;;;;;;;;;12.50;99.90;;;;;;4587156;19;20417;-27
2022/12/25 12:55:48;;;;;;;72.17;43.93;;;12.50;99.90;;;;;;4585855;19;19911;-30
2022/12/25 12:57:25;;;;;;;62.60;43.27;;;12.50;99.90;;;;;;4585999;19;20039;-28
2022/12/25 12:58:56;;;;;;;58.00;39.23;;;12.50;99.90;;;;;;4585279;19;20031;-30
2022/12/25 13:01:08;;;;;;;61.63;40.38;;;12.50;99.90;;;;;;4587992;19;20400;-29
2022/12/25 13:02:57;;;;;;;61.28;41.10;;;12.50;99.90;;;;;;4584672;19;20026;-28
2022/12/25 13:04:40;;;;;;;64.53;41.20;;;12.60;99.90;;;;;;4587638;19;20011;-30
2022/12/25 13:06:30;;;;;;;62.93;41.87;;;12.60;99.90;;;;;;4585970;19;20027;-27
2022/12/25 13:08:01;;;;;;;65.80;42.07;;;12.60;99.90;;;;;;4584670;19;21083;-30
2022/12/25 13:09:56;;;;;;;178.38;97.65;;;12.60;99.90;;;;;;4586476;19;20456;-29
2022/12/25 13:11:28;;;;;;;155.00;86.40;;;12.60;99.90;;;;;;4586172;19;20391;-29
2022/12/25 13:14:53;;;;;;;151.60;84.70;;;12.60;99.90;;;;;;4585443;19;20434;-30
2022/12/25 13:16:26;;;;;;;201.23;112.30;;;12.60;99.90;;;;;;4584768;19;20011;-27
2022/12/25 13:18:04;;;;;;;159.73;91.60;;;12.60;99.90;;;;;;4587951;19;20014;-30
2022/12/25 13:19:35;;;;;;;156.97;91.87;;;12.60;99.90;;;;;;4587466;19;20015;-30
2022/12/25 13:21:06;;;;;;;183.75;105.68;;;12.60;99.90;;;;;;4586955;19;20014;-29
2022/12/25 13:22:38;;;;;;;191.13;110.88;;;12.60;99.90;;;;;;4585374;19;20385;-29
2022/12/25 13:24:20;;;;;;;202.45;117.85;;;12.60;99.90;;;;;;4586557;19;20074;-28
2022/12/25 13:25:55;;;;;;;;;;;12.60;99.90;;;;;;4587243;19;20590;-27
2022/12/25 13:27:29;;;;;;;192.47;114.67;;;12.60;99.90;;;;;;4584978;19;20287;-28
2022/12/25 13:29:01;;;;;;;141.37;88.13;;;12.60;99.90;;;;;;4587126;19;20340;-27
2022/12/25 13:30:33;;;;;;;115.93;73.88;;;12.70;99.90;;;;;;4591116;19;20348;-28
2022/12/25 13:32:05;;;;;;;101.00;65.22;;;12.70;99.90;;;;;;4590096;19;20007;-30
2022/12/25 13:33:37;;;;;;;99.10;65.90;;;12.70;99.90;;;;;;4592087;19;20022;-29
2022/12/25 13:35:12;;;;;;;133.32;87.47;;;12.70;99.90;;;;;;4590730;19;20394;-28
2022/12/25 13:36:43;;;;;;;119.20;80.10;;;12.70;99.90;;;;;;4593859;19;20042;-29
2022/12/25 13:38:15;;;;;;;131.48;88.47;;;12.70;99.90;;;;;;4593545;19;20014;-28
2022/12/25 13:39:56;;;;;;;;;;;12.70;99.90;;;;;;4593082;19;20078;-30
2022/12/25 13:43:25;;;;;;;234.10;156.10;;;12.60;99.90;;;;;;4591140;19;20007;-30
2022/12/25 13:44:57;;;;;;;196.70;133.32;;;12.70;99.90;;;;;;4591633;19;20074;-28
2022/12/25 13:46:29;;;;;;;129.23;89.03;;;12.70;99.90;;;;;;4591987;19;20014;-27
2022/12/25 13:48:13;;;;;;;122.97;82.50;;;12.70;99.90;;;;;;4591623;19;20021;-29
2022/12/25 13:49:44;;;;;;;128.90;89.10;;;12.70;99.90;;;;;;4592294;19;20030;-28
2022/12/25 13:51:19;;;;;;;173.27;127.40;;;12.60;99.90;;;;;;4592776;19;20014;-27
2022/12/25 13:53:09;;;;;;;179.30;135.00;;;12.60;99.90;;;;;;4588881;19;20360;-28
2022/12/25 13:54:59;;;;;;;183.90;132.50;;;12.60;99.90;;;;;;4593612;19;20030;-29
2022/12/25 13:56:31;;;;;;;161.20;105.97;;;12.50;99.90;;;;;;4593730;19;20022;-26
2022/12/25 13:58:03;;;;;;;160.52;105.75;;;12.60;99.90;;;;;;4591140;19;20006;-28
2022/12/25 13:59:35;;;;;;;240.10;149.30;;;12.50;99.90;;;;;;4591050;19;20035;-30
2022/12/25 14:01:07;;;;;;;197.07;128.70;;;12.50;99.90;;;;;;4590755;19;20034;-27
2022/12/25 14:02:38;;;;;;;142.82;94.25;;;12.60;99.90;;;;;;4589595;19;20040;-28
2022/12/25 14:04:18;;;;;;;128.52;81.65;;;12.60;99.90;;;;;;4591760;19;20043;-28
2022/12/25 14:06:00;;;;;;;133.23;90.93;;;12.60;99.90;;;;;;4591482;19;20014;-29
2022/12/25 14:07:33;;;;;;;131.45;88.35;;;12.60;99.90;;;;;;4592783;19;20022;-28
2022/12/25 14:09:04;;;;;;;138.10;92.83;;;12.60;99.90;;;;;;4590928;19;20019;-32
2022/12/25 14:10:37;;;;;;;143.27;100.68;;;12.60;99.90;;;;;;4593373;19;20023;-28
2022/12/25 14:12:08;;;;;;;131.33;97.60;;;12.60;99.90;;;;;;4590684;19;20017;-31
2022/12/25 14:13:40;;;;;;;118.78;86.85;;;12.60;99.90;;;;;;4591222;19;20011;-31
2022/12/25 14:15:13;;;;;;;119.97;84.00;;;12.60;99.90;;;;;;4591104;19;20018;-30
2022/12/25 14:29:04;;;;;;;82.93;58.63;;;12.60;99.90;;;;;;4588821;19;20021;-31
2022/12/25 14:30:36;;;;;;;92.30;60.33;;;12.60;99.90;;;;;;4588349;19;20077;-29
2022/12/25 14:32:09;;;;;;;90.95;59.28;;;12.60;99.90;;;;;;4587249;19;20011;-31
2022/12/25 14:33:41;;;;;;;121.80;94.87;;;12.60;99.90;;;;;;4590174;19;20230;-28
2022/12/25 14:35:12;;;;;;;134.00;105.95;;;12.60;99.90;;;;;;4590763;19;20038;-28
2022/12/25 14:36:44;;;;;;;118.30;94.55;;;12.60;99.90;;;;;;4588894;19;20049;-31
2022/12/25 14:38:38;;;;;;;115.90;88.07;;;12.60;99.90;;;;;;4590085;19;20022;-29
2022/12/25 14:40:30;;;;;;;120.07;89.00;;;12.60;99.90;;;;;;4588644;19;20054;-32
2022/12/25 14:42:20;;;;;;;109.00;82.97;;;12.60;99.90;;;;;;4588726;19;20022;-32
2022/12/25 14:43:53;;;;;;;103.43;77.20;;;12.60;99.90;;;;;;4589998;19;20018;-29
2022/12/25 14:45:32;;;;;;;89.50;71.37;;;12.60;99.90;;;;;;4590160;19;20507;-29
2022/12/25 14:47:09;;;;;;;87.30;67.07;;;12.60;99.90;;;;;;4589843;19;20472;-29
2022/12/25 14:48:40;;;;;;;86.93;60.67;;;12.60;99.90;;;;;;4589287;19;20018;-29
2022/12/25 14:50:23;;;;;;;101.05;65.82;;;12.60;99.90;;;;;;4590382;19;20022;-30
2022/12/25 14:51:54;;;;;;;85.50;56.63;;;12.60;99.90;;;;;;4590113;19;20043;-31
2022/12/25 14:53:39;;;;;;;74.38;49.40;;;12.60;99.90;;;;;;4587864;19;20014;-29
2022/12/25 14:55:21;;;;;;;71.83;48.93;;;12.60;99.90;;;;;;4591428;19;20034;-29
2022/12/25 14:56:52;;;;;;;82.00;55.85;;;12.60;99.90;;;;;;4591087;19;20028;-29
2022/12/25 14:58:26;;;;;;;118.77;86.87;;;12.60;99.90;;;;;;4591230;19;20011;-31
2022/12/25 15:00:19;;;;;;;109.37;79.33;;;12.60;99.90;;;;;;4591886;19;20463;-31
2022/12/25 15:01:59;;;;;;;87.50;66.03;;;12.60;99.90;;;;;;4591591;19;20018;-30
2022/12/25 15:03:37;;;;;;;85.50;58.67;;;12.60;99.90;;;;;;4587992;19;20019;-31
2022/12/25 15:05:37;;;;;;;77.83;53.73;;;12.60;99.90;;;;;;4589208;19;20073;-31
2022/12/25 15:07:24;;;;;;;76.93;51.27;;;12.60;99.90;;;;;;4589202;19;20015;-29
2022/12/25 15:08:57;;;;;;;76.73;51.37;;;12.60;99.90;;;;;;4589114;19;20014;-30
2022/12/25 15:10:33;;;;;;;77.43;51.70;;;12.70;99.90;;;;;;4590895;19;20039;-28
2022/12/25 15:12:07;;;;;;;81.90;54.40;;;12.80;99.90;;;;;;4588910;19;20007;-31
2022/12/25 15:13:41;;;;;;;83.27;55.17;;;12.80;99.90;;;;;;4590152;19;20096;-32
2022/12/25 15:15:13;;;;;;;82.03;54.90;;;12.90;99.90;;;;;;4590874;19;20010;-30
2022/12/25 15:16:49;;;;;;;89.40;61.45;;;13.00;99.90;;;;;;4591279;19;20046;-28
2022/12/25 15:18:21;;;;;;;111.70;76.67;;;13.10;99.90;;;;;;4589128;19;20018;-35
2022/12/25 15:19:55;;;;;;;129.73;90.00;;;13.10;99.90;;;;;;4590819;19;20017;-29
2022/12/25 15:21:28;;;;;;;131.93;94.43;;;13.10;99.90;;;;;;4588081;19;20038;-31
2022/12/25 15:23:01;;;;;;;130.03;92.10;;;13.20;99.90;;;;;;4588347;19;20018;-29
2022/12/25 15:24:34;;;;;;;118.37;87.00;;;13.20;99.90;;;;;;4590837;19;20019;-31
2022/12/25 15:26:11;;;;;;;109.03;76.97;;;13.30;99.90;;;;;;4590127;19;20086;-30
2022/12/25 15:27:44;;;;;;;101.47;70.60;;;13.30;99.90;;;;;;4588421;19;20014;-28
2022/12/25 15:29:16;;;;;;;100.43;70.67;;;13.30;99.90;;;;;;4587713;19;20346;-30
2022/12/25 15:30:48;;;;;;;100.03;69.73;;;13.20;99.90;;;;;;4589610;19;20502;-31
2022/12/25 15:32:23;;;;;;;98.88;69.82;;;13.30;99.90;;;;;;4588336;19;20010;-31
2022/12/25 15:33:56;;;;;;;94.10;68.13;;;13.20;99.90;;;;;;4590107;19;20042;-29
2022/12/25 15:35:28;;;;;;;88.50;65.37;;;13.20;99.90;;;;;;4590688;19;20019;-29
2022/12/25 15:36:59;;;;;;;85.55;64.80;;;13.20;99.90;;;;;;4589066;19;20383;-31